createdAt,value
2019-05-22T00:01:58.923Z,15.23
2019-05-22T00:04:50.676Z,15.35
2019-05-22T00:07:38.589Z,15.00
2019-05-22T00:10:26.636Z,15.28
2019-05-22T00:13:18.253Z,15.15
2019-05-22T00:16:05.858Z,15.55
2019-05-22T00:18:53.691Z,15.08
2019-05-22T00:21:42.836Z,15.85
2019-05-22T00:24:29.955Z,14.70
2019-05-22T00:27:17.896Z,15.43
2019-05-22T00:30:09.501Z,15.35
2019-05-22T00:32:57.898Z,15.53
2019-05-22T00:35:45.457Z,15.72
2019-05-22T00:38:36.194Z,15.23
2019-05-22T00:41:24.687Z,14.83
2019-05-22T00:44:13.849Z,15.08
2019-05-22T00:47:01.767Z,15.28
2019-05-22T00:49:52.450Z,16.70
2019-05-22T00:52:44.781Z,16.45
2019-05-22T00:55:43.916Z,17.95
2019-05-22T00:58:50.691Z,18.77
2019-05-22T01:01:45.728Z,18.67
2019-05-22T01:04:35.424Z,17.23
2019-05-22T01:07:31.720Z,17.92
2019-05-22T01:10:18.620Z,17.42
2019-05-22T01:13:07.555Z,15.25
2019-05-22T01:15:55.790Z,14.50
2019-05-22T01:18:43.716Z,15.25
2019-05-22T01:21:33.310Z,14.53
2019-05-22T01:24:20.731Z,14.58
2019-05-22T01:27:09.461Z,14.40
2019-05-22T01:29:57.493Z,14.25
2019-05-22T01:32:46.354Z,13.98
2019-05-22T01:35:35.675Z,13.55
2019-05-22T01:38:23.191Z,12.95
2019-05-22T01:41:17.942Z,13.25
2019-05-22T01:44:06.790Z,11.75
2019-05-22T01:46:56.458Z,12.63
2019-05-22T01:49:51.502Z,12.15
2019-05-22T01:52:40.200Z,12.15
2019-05-22T01:55:27.819Z,11.57
2019-05-22T01:58:15.848Z,11.68
2019-05-22T02:01:05.388Z,11.40
2019-05-22T02:04:03.922Z,12.82
2019-05-22T02:06:51.161Z,11.12
2019-05-22T02:09:40.671Z,11.10
2019-05-22T02:12:35.316Z,11.22
2019-05-22T02:15:24.804Z,10.80
2019-05-22T02:18:16.588Z,10.50
2019-05-22T02:21:04.477Z,10.13
2019-05-22T02:23:52.542Z,11.28
2019-05-22T02:26:40.423Z,12.50
2019-05-22T02:29:29.156Z,12.05
2019-05-22T02:32:17.735Z,12.85
2019-05-22T02:35:08.427Z,13.05
2019-05-22T02:37:57.238Z,12.60
2019-05-22T02:40:49.388Z,12.98
2019-05-22T02:43:37.182Z,12.37
2019-05-22T02:46:24.589Z,13.78
2019-05-22T02:49:13.899Z,13.85
2019-05-22T02:52:01.931Z,14.85
2019-05-22T02:54:49.829Z,13.98
2019-05-22T02:57:37.708Z,14.43
2019-05-22T03:00:29.342Z,14.13
2019-05-22T03:03:20.243Z,13.62
2019-05-22T03:06:14.077Z,14.20
2019-05-22T03:09:05.461Z,14.10
2019-05-22T03:12:02.235Z,15.10
2019-05-22T03:14:48.925Z,15.15
2019-05-22T03:17:38.607Z,15.15
2019-05-22T03:20:26.707Z,15.48
2019-05-22T03:23:26.695Z,15.35
2019-05-22T03:26:16.801Z,13.60
2019-05-22T03:29:04.597Z,15.23
2019-05-22T03:31:52.783Z,14.70
2019-05-22T03:34:40.664Z,15.55
2019-05-22T03:37:27.874Z,16.45
2019-05-22T03:40:15.820Z,16.02
2019-05-22T03:43:06.148Z,16.75
2019-05-22T03:45:55.981Z,16.80
2019-05-22T03:48:44.761Z,16.25
2019-05-22T03:51:32.977Z,16.27
2019-05-22T03:54:21.693Z,15.35
2019-05-22T03:57:10.348Z,16.27
2019-05-22T03:59:58.295Z,15.70
2019-05-22T04:02:51.220Z,15.98
2019-05-22T04:05:38.681Z,16.20
2019-05-22T04:08:26.444Z,15.98
2019-05-22T04:11:14.437Z,15.18
2019-05-22T04:14:01.940Z,15.60
2019-05-22T04:16:51.137Z,14.98
2019-05-22T04:19:49.440Z,14.80
2019-05-22T04:22:29.739Z,14.58
2019-05-22T04:25:18.798Z,14.43
2019-05-22T04:28:06.099Z,13.65
2019-05-22T04:30:53.604Z,13.08
2019-05-22T04:33:40.750Z,13.20
2019-05-22T04:36:29.107Z,13.05
2019-05-22T04:39:20.487Z,13.88
2019-05-22T04:42:11.720Z,12.63
2019-05-22T04:45:15.198Z,12.65
2019-05-22T04:48:03.612Z,12.65
2019-05-22T04:50:51.930Z,12.53
2019-05-22T04:53:39.400Z,12.47
2019-05-22T04:56:28.133Z,12.70
2019-05-22T04:59:16.285Z,12.28
2019-05-22T05:02:05.180Z,12.00
2019-05-22T05:04:54.075Z,11.80
2019-05-22T05:07:41.570Z,12.13
2019-05-22T05:10:28.911Z,11.60
2019-05-22T05:13:16.636Z,12.68
2019-05-22T05:16:04.718Z,11.22
2019-05-22T05:18:51.992Z,11.38
2019-05-22T05:21:38.867Z,12.68
2019-05-22T05:24:25.996Z,12.93
2019-05-22T05:27:13.641Z,12.07
2019-05-22T05:30:00.742Z,11.90
2019-05-22T05:32:47.844Z,12.43
2019-05-22T05:35:35.910Z,12.50
2019-05-22T05:38:38.357Z,12.55
2019-05-22T05:41:25.479Z,11.33
2019-05-22T05:44:12.836Z,11.03
2019-05-22T05:47:00.668Z,11.00
2019-05-22T05:49:49.115Z,8.40
2019-05-22T05:52:37.896Z,8.08
2019-05-22T05:55:27.419Z,8.23
2019-05-22T05:58:29.424Z,9.00
2019-05-22T06:01:20.034Z,8.20
2019-05-22T06:04:08.291Z,7.92
2019-05-22T06:07:00.889Z,7.28
2019-05-22T06:09:50.111Z,6.45
2019-05-22T06:12:37.558Z,6.62
2019-05-22T06:15:47.216Z,6.37
2019-05-22T06:18:37.310Z,6.30
2019-05-22T06:21:24.771Z,5.70
2019-05-22T06:24:33.021Z,5.28
2019-05-22T06:27:25.432Z,5.22
2019-05-22T06:30:21.580Z,5.80
2019-05-22T06:33:13.569Z,5.80
2019-05-22T06:36:04.732Z,5.58
2019-05-22T06:38:59.312Z,6.25
2019-05-22T06:41:48.049Z,5.67
2019-05-22T06:44:36.190Z,6.30
2019-05-22T06:47:25.615Z,6.37
2019-05-22T06:50:12.847Z,7.30
2019-05-22T06:53:09.876Z,8.18
2019-05-22T06:55:51.258Z,7.80
2019-05-22T06:58:38.337Z,8.30
2019-05-22T07:01:25.913Z,8.18
2019-05-22T07:04:14.128Z,8.48
2019-05-22T07:07:01.350Z,7.53
2019-05-22T07:09:49.608Z,7.30
2019-05-22T07:12:37.072Z,6.50
2019-05-22T07:15:27.240Z,6.10
2019-05-22T07:18:16.178Z,5.70
2019-05-22T07:21:04.166Z,6.03
2019-05-22T07:23:51.354Z,5.65
2019-05-22T07:26:39.044Z,6.12
2019-05-22T07:29:27.026Z,6.03
2019-05-22T07:32:14.063Z,6.10
2019-05-22T07:35:02.743Z,5.83
2019-05-22T07:37:50.792Z,5.42
2019-05-22T07:40:38.252Z,5.53
2019-05-22T07:43:26.207Z,5.72
2019-05-22T07:46:16.623Z,5.33
2019-05-22T07:49:04.887Z,5.80
2019-05-22T07:52:00.668Z,6.05
2019-05-22T07:54:42.005Z,5.62
2019-05-22T07:57:30.413Z,5.42
2019-05-22T08:00:18.483Z,4.12
2019-05-22T08:03:06.677Z,4.90
2019-05-22T08:05:56.163Z,4.08
2019-05-22T08:08:44.432Z,4.67
2019-05-22T08:11:31.867Z,4.22
2019-05-22T08:14:21.238Z,4.60
2019-05-22T08:17:10.530Z,3.70
2019-05-22T08:19:57.587Z,4.00
2019-05-22T08:22:47.483Z,3.80
2019-05-22T08:25:34.821Z,3.70
2019-05-22T08:28:22.209Z,4.03
2019-05-22T08:31:11.107Z,4.78
2019-05-22T08:33:59.406Z,3.83
2019-05-22T08:36:49.143Z,4.50
2019-05-22T08:39:38.073Z,4.50
2019-05-22T08:42:26.683Z,5.28
2019-05-22T08:45:17.889Z,4.78
2019-05-22T08:48:05.817Z,4.42
2019-05-22T08:50:53.979Z,4.37
2019-05-22T08:53:47.461Z,4.60
2019-05-22T08:56:39.152Z,4.55
2019-05-22T08:59:26.914Z,5.15
2019-05-22T09:02:15.279Z,4.85
2019-05-22T09:05:02.153Z,5.62
2019-05-22T09:07:49.539Z,6.35
2019-05-22T09:10:37.589Z,8.13
2019-05-22T09:13:25.080Z,7.28
2019-05-22T09:16:14.337Z,6.83
2019-05-22T09:19:02.250Z,6.47
2019-05-22T09:21:49.182Z,7.20
2019-05-22T09:24:36.747Z,6.87
2019-05-22T09:27:24.150Z,7.05
2019-05-22T09:30:12.618Z,6.67
2019-05-22T09:33:00.397Z,7.30
2019-05-22T09:35:48.221Z,9.25
2019-05-22T09:38:35.680Z,9.23
2019-05-22T09:41:22.874Z,9.45
2019-05-22T09:44:09.977Z,9.18
2019-05-22T09:46:57.217Z,10.53
2019-05-22T09:49:44.390Z,12.47
2019-05-22T09:52:32.310Z,11.15
2019-05-22T09:55:19.641Z,11.03
2019-05-22T09:58:08.341Z,11.40
2019-05-22T10:00:55.859Z,11.80
2019-05-22T10:03:43.122Z,11.83
2019-05-22T10:06:30.273Z,11.75
2019-05-22T10:09:17.485Z,10.90
2019-05-22T10:12:05.579Z,11.50
2019-05-22T10:14:53.089Z,11.97
2019-05-22T10:17:43.415Z,10.88
2019-05-22T10:20:31.224Z,12.45
2019-05-22T10:23:18.694Z,14.05
2019-05-22T10:26:06.287Z,14.25
2019-05-22T10:28:53.758Z,13.00
2019-05-22T10:31:40.440Z,11.08
2019-05-22T10:34:27.618Z,14.65
2019-05-22T10:37:14.787Z,15.08
2019-05-22T10:40:02.816Z,15.40
2019-05-22T10:42:53.597Z,14.45
2019-05-22T10:45:44.916Z,13.78
2019-05-22T10:48:32.459Z,13.35
2019-05-22T10:51:20.259Z,14.43
2019-05-22T10:54:07.341Z,14.18
2019-05-22T10:56:54.522Z,13.35
2019-05-22T10:59:41.971Z,13.18
2019-05-22T11:02:29.181Z,11.90
2019-05-22T11:05:17.868Z,12.90
2019-05-22T11:08:05.412Z,13.00
2019-05-22T11:10:53.009Z,12.53
2019-05-22T11:13:40.352Z,12.82
2019-05-22T11:16:27.796Z,14.18
2019-05-22T11:19:15.582Z,14.25
2019-05-22T11:22:03.213Z,15.10
2019-05-22T11:24:50.378Z,14.65
2019-05-22T11:27:39.152Z,15.70
2019-05-22T11:30:26.678Z,14.80
2019-05-22T11:33:14.533Z,14.35
2019-05-22T11:36:03.318Z,13.08
2019-05-22T11:38:51.563Z,12.63
2019-05-22T11:41:39.886Z,13.30
2019-05-22T11:44:27.640Z,13.65
2019-05-22T11:47:17.130Z,13.58
2019-05-22T11:50:09.818Z,13.30
2019-05-22T11:52:56.747Z,12.28
2019-05-22T11:55:46.090Z,12.18
2019-05-22T11:58:32.910Z,12.05
2019-05-22T12:01:20.337Z,12.05
2019-05-22T12:04:11.264Z,13.25
2019-05-22T12:06:59.413Z,13.08
2019-05-22T12:09:47.218Z,12.37
2019-05-22T12:12:35.630Z,13.22
2019-05-22T12:15:26.278Z,13.85
2019-05-22T12:18:15.161Z,13.48
2019-05-22T12:21:02.774Z,13.80
2019-05-22T12:23:50.887Z,15.20
2019-05-22T12:26:39.804Z,14.15
2019-05-22T12:29:28.792Z,14.47
2019-05-22T12:32:16.327Z,15.20
2019-05-22T12:35:04.656Z,13.83
2019-05-22T12:37:57.509Z,13.62
2019-05-22T12:40:46.456Z,13.85
2019-05-22T12:43:35.094Z,14.03
2019-05-22T12:46:22.552Z,13.55
2019-05-22T12:49:11.652Z,14.73
2019-05-22T12:52:00.820Z,12.88
2019-05-22T12:54:52.602Z,13.28
2019-05-22T12:57:37.511Z,13.88
2019-05-22T13:00:29.183Z,12.10
2019-05-22T13:03:16.790Z,12.00
2019-05-22T13:06:05.073Z,12.15
2019-05-22T13:08:53.474Z,12.65
2019-05-22T13:11:41.276Z,12.85
2019-05-22T13:14:28.852Z,11.85
2019-05-22T13:17:17.078Z,11.85
2019-05-22T13:20:07.589Z,12.60
2019-05-22T13:22:57.033Z,12.10
2019-05-22T13:25:45.193Z,12.45
2019-05-22T13:28:33.534Z,12.40
2019-05-22T13:31:21.132Z,11.85
2019-05-22T13:34:08.846Z,11.85
2019-05-22T13:36:57.012Z,10.90
2019-05-22T13:39:44.129Z,11.57
2019-05-22T13:42:31.642Z,11.48
2019-05-22T13:45:29.075Z,11.97
2019-05-22T13:48:10.393Z,10.93
2019-05-22T13:50:59.145Z,10.90
2019-05-22T13:53:46.176Z,10.78
2019-05-22T13:56:33.503Z,9.88
2019-05-22T13:59:21.432Z,10.80
2019-05-22T14:02:08.689Z,10.78
2019-05-22T14:04:55.722Z,9.70
2019-05-22T14:07:42.953Z,10.03
2019-05-22T14:10:31.283Z,11.38
2019-05-22T14:13:19.203Z,11.88
2019-05-22T14:16:06.147Z,10.98
2019-05-22T14:18:53.309Z,10.10
2019-05-22T14:21:40.276Z,9.63
2019-05-22T14:24:27.447Z,9.40
2019-05-22T14:27:14.702Z,9.23
2019-05-22T14:30:05.196Z,9.53
2019-05-22T14:32:52.614Z,9.15
2019-05-22T14:35:48.366Z,9.18
2019-05-22T14:38:31.141Z,9.10
2019-05-22T14:41:18.234Z,9.93
2019-05-22T14:44:05.351Z,9.93
2019-05-22T14:46:52.711Z,9.83
2019-05-22T14:49:40.565Z,10.23
2019-05-22T14:52:28.371Z,9.33
2019-05-22T14:55:17.972Z,9.15
2019-05-22T14:58:06.270Z,9.03
2019-05-22T15:00:54.016Z,9.38
2019-05-22T15:03:41.233Z,8.45
2019-05-22T15:06:28.457Z,8.73
2019-05-22T15:09:16.335Z,9.15
2019-05-22T15:12:03.697Z,9.70
2019-05-22T15:14:51.079Z,9.75
2019-05-22T15:17:39.181Z,9.98
2019-05-22T15:20:29.021Z,9.73
2019-05-22T15:23:17.008Z,8.80
2019-05-22T15:26:05.049Z,8.43
2019-05-22T15:28:52.333Z,8.68
2019-05-22T15:31:40.152Z,8.65
2019-05-22T15:34:28.886Z,9.15
2019-05-22T15:37:19.383Z,8.73
2019-05-22T15:40:08.954Z,8.88
2019-05-22T15:42:56.309Z,9.73
2019-05-22T15:45:43.777Z,9.75
2019-05-22T15:48:33.874Z,8.98
2019-05-22T15:51:25.946Z,10.05
2019-05-22T15:54:14.283Z,9.58
2019-05-22T15:57:03.519Z,10.20
2019-05-22T15:59:51.967Z,10.40
2019-05-22T16:02:41.306Z,8.95
2019-05-22T16:05:29.678Z,10.15
2019-05-22T16:08:18.219Z,10.10
2019-05-22T16:11:09.326Z,9.55
2019-05-22T16:13:59.621Z,9.30
2019-05-22T16:16:49.307Z,9.88
2019-05-22T16:19:36.987Z,9.90
2019-05-22T16:22:25.272Z,9.93
2019-05-22T16:25:13.825Z,10.30
2019-05-22T16:28:02.721Z,9.00
2019-05-22T16:30:49.955Z,10.00
2019-05-22T16:33:40.727Z,10.08
2019-05-22T16:36:29.475Z,10.00
2019-05-22T16:39:17.604Z,10.20
2019-05-22T16:42:05.908Z,8.98
2019-05-22T16:44:53.087Z,10.10
2019-05-22T16:47:41.250Z,9.60
2019-05-22T16:50:29.032Z,9.03
2019-05-22T16:53:17.844Z,8.93
2019-05-22T16:56:05.783Z,9.30
2019-05-22T16:58:54.594Z,9.18
2019-05-22T17:01:57.821Z,8.68
2019-05-22T17:04:31.389Z,8.90
2019-05-22T17:07:19.568Z,8.40
2019-05-22T17:10:08.064Z,8.63
2019-05-22T17:12:57.306Z,8.90
2019-05-22T17:15:45.425Z,8.90
2019-05-22T17:18:46.860Z,8.80
2019-05-22T17:21:23.257Z,9.00
2019-05-22T17:24:11.663Z,8.40
2019-05-22T17:26:58.713Z,9.03
2019-05-22T17:29:46.324Z,8.93
2019-05-22T17:32:33.633Z,8.90
2019-05-22T17:35:22.775Z,9.20
2019-05-22T17:38:10.595Z,9.53
2019-05-22T17:40:59.060Z,8.33
2019-05-22T17:43:46.503Z,9.03
2019-05-22T17:46:33.946Z,8.35
2019-05-22T17:49:21.221Z,8.48
2019-05-22T17:52:12.002Z,8.45
2019-05-22T17:54:58.339Z,8.15
2019-05-22T17:57:45.055Z,9.10
2019-05-22T18:00:36.741Z,8.50
2019-05-22T18:03:23.768Z,9.15
2019-05-22T18:06:10.383Z,9.43
2019-05-22T18:08:57.475Z,8.48
2019-05-22T18:11:44.521Z,8.70
2019-05-22T18:14:31.578Z,9.20
2019-05-22T18:17:19.219Z,7.90
2019-05-22T18:20:07.847Z,7.95
2019-05-22T18:22:54.826Z,7.92
2019-05-22T18:28:28.063Z,7.58
2019-05-22T18:31:15.156Z,8.45
2019-05-22T18:34:01.890Z,8.38
2019-05-22T18:36:49.205Z,8.80
2019-05-22T18:39:36.868Z,8.95
2019-05-22T18:42:24.450Z,8.70
2019-05-22T18:45:13.261Z,9.20
2019-05-22T18:48:00.528Z,9.08
2019-05-22T18:50:48.240Z,9.60
2019-05-22T18:53:35.549Z,8.75
2019-05-22T18:56:22.684Z,9.53
2019-05-22T18:59:10.148Z,9.80
2019-05-22T19:01:57.443Z,9.63
2019-05-22T19:04:44.546Z,9.23
2019-05-22T19:07:32.010Z,10.00
2019-05-22T19:10:20.148Z,10.10
2019-05-22T19:13:07.830Z,10.60
2019-05-22T19:15:55.324Z,11.05
2019-05-22T19:18:42.622Z,9.80
2019-05-22T19:21:30.132Z,10.80
2019-05-22T19:24:17.667Z,11.12
2019-05-22T19:27:05.189Z,9.85
2019-05-22T19:29:52.601Z,10.28
2019-05-22T19:32:40.089Z,11.25
2019-05-22T19:35:27.187Z,11.43
2019-05-22T19:38:14.722Z,11.35
2019-05-22T19:41:02.788Z,10.75
2019-05-22T19:43:50.228Z,11.20
2019-05-22T19:46:37.414Z,11.22
2019-05-22T19:49:25.174Z,11.28
2019-05-22T19:52:12.492Z,11.83
2019-05-22T19:55:00.182Z,11.90
2019-05-22T19:57:47.088Z,12.00
2019-05-22T20:03:21.005Z,11.70
2019-05-22T20:06:08.571Z,11.97
2019-05-22T20:08:56.252Z,12.03
2019-05-22T20:11:43.985Z,12.05
2019-05-22T20:14:31.012Z,12.58
2019-05-22T20:17:18.154Z,12.80
2019-05-22T20:20:08.522Z,12.78
2019-05-22T20:22:56.598Z,12.35
2019-05-22T20:25:43.638Z,12.30
2019-05-22T20:28:31.727Z,11.73
2019-05-22T20:31:19.342Z,12.30
2019-05-22T20:34:07.592Z,11.05
2019-05-22T20:36:55.469Z,11.68
2019-05-22T20:39:42.423Z,11.60
2019-05-22T20:42:31.905Z,11.05
2019-05-22T20:45:20.825Z,11.38
2019-05-22T20:48:12.131Z,12.05
2019-05-22T20:51:01.047Z,12.03
2019-05-22T20:53:53.946Z,11.65
2019-05-22T20:56:39.695Z,11.50
2019-05-22T20:59:27.118Z,12.07
2019-05-22T21:02:15.759Z,11.63
2019-05-22T21:05:05.709Z,11.43
2019-05-22T21:07:56.720Z,11.08
2019-05-22T21:10:46.673Z,10.82
2019-05-22T21:13:34.417Z,10.68
2019-05-22T21:16:22.996Z,11.12
2019-05-22T21:19:11.497Z,11.75
2019-05-22T21:22:00.363Z,11.93
2019-05-22T21:24:49.950Z,11.43
2019-05-22T21:27:38.245Z,11.78
2019-05-22T21:30:27.884Z,11.38
2019-05-22T21:33:15.623Z,11.33
2019-05-22T21:36:04.820Z,10.15
2019-05-22T21:38:51.851Z,10.35
2019-05-22T21:41:39.834Z,10.32
2019-05-22T21:44:27.575Z,9.88
2019-05-22T21:47:16.478Z,11.40
2019-05-22T21:50:04.968Z,10.00
2019-05-22T21:52:53.037Z,9.55
2019-05-22T21:55:45.431Z,10.13
2019-05-22T21:58:30.339Z,9.28
2019-05-22T22:01:19.518Z,9.85
2019-05-22T22:04:17.961Z,9.83
2019-05-22T22:07:05.880Z,10.20
2019-05-22T22:09:53.506Z,10.15
2019-05-22T22:12:41.681Z,9.15
2019-05-22T22:15:30.941Z,10.10
2019-05-22T22:18:19.728Z,9.85
2019-05-22T22:21:07.861Z,9.33
2019-05-22T22:23:55.234Z,9.55
2019-05-22T22:26:43.137Z,9.95
2019-05-22T22:29:30.650Z,10.05
2019-05-22T22:32:18.449Z,9.60
2019-05-22T22:35:09.183Z,9.43
2019-05-22T22:37:57.812Z,10.35
2019-05-22T22:40:47.647Z,9.65
2019-05-22T22:43:37.527Z,9.03
2019-05-22T22:46:29.110Z,9.60
2019-05-22T22:49:18.814Z,9.25
2019-05-22T22:52:06.185Z,11.12
2019-05-22T22:54:54.321Z,9.10
2019-05-22T22:57:42.135Z,10.23
2019-05-22T23:00:34.704Z,9.30
2019-05-22T23:03:24.616Z,10.10
2019-05-22T23:06:14.137Z,9.15
2019-05-22T23:09:02.008Z,9.43
2019-05-22T23:11:49.588Z,9.50
2019-05-22T23:14:38.453Z,8.58
2019-05-22T23:17:26.676Z,9.13
2019-05-22T23:20:13.405Z,8.68
2019-05-22T23:22:59.577Z,8.08
2019-05-22T23:25:47.326Z,8.33
2019-05-22T23:28:35.270Z,9.65
2019-05-22T23:31:22.515Z,9.53
2019-05-22T23:34:10.076Z,10.53
2019-05-22T23:36:57.969Z,10.23
2019-05-22T23:39:47.545Z,9.25
2019-05-22T23:42:39.433Z,10.03
2019-05-22T23:45:26.825Z,9.45
2019-05-22T23:48:15.871Z,9.65
2019-05-22T23:51:02.903Z,10.45
2019-05-22T23:53:51.134Z,9.65
2019-05-22T23:56:39.853Z,8.95
2019-05-22T23:59:27.866Z,8.88
